Observations for LAWRENCE MUNICIPAL, MA (LWM)

KLWM 201554Z 29008G18KT 10SM CLR 19/04 A3006 RMK AO2 SLP178 T01890039   
KLWM 201454Z 28011KT 10SM CLR 18/04 A3007 RMK AO2 SLP181 T01780039 50005
KLWM 201354Z 29008G16KT 10SM CLR 17/04 A3008 RMK AO2 SLP187 T01720044   
KLWM 201254Z 29009KT 10SM CLR 16/05 A3007 RMK AO2 SLP182 T01610050  
KLWM 201154Z 26004KT 10SM CLR 14/08 A3005 RMK AO2 SLP176 T01440083 10161 20133 53020
KLWM 201054Z COR 23007KT 10SM CLR 14/08 A3002 RMK AO2 SLP164 T013900834 $   
KLWM 200954Z AUTO 22005KT 10SM CLR 14/08 A3001 RMK AO2 SLP160 T01440083 $   
KLWM 200854Z AUTO 23008KT 10SM CLR 16/08 A2999 RMK AO2 SLP156 T01560083 53005 $ 
KLWM 200754Z AUTO 23006KT 10SM CLR 15/08 A2999 RMK AO2 SLP155 T01500083 $   
KLWM 200654Z AUTO 21005KT 10SM CLR 16/09 A2998 RMK AO2 SLP151 T01560089 $   
KLWM 200554Z AUTO 22007KT 10SM CLR 16/09 A2998 RMK AO2 SLP151 T01610089 10189 20156 57007 $ 
KLWM 200454Z AUTO 22009KT 10SM CLR 16/09 A2999 RMK AO2 SLP154 T01560089 402440072 $ 
KLWM 200354Z AUTO 21008KT 10SM CLR 16/08 A2999 RMK AO2 SLP156 T01610083 $   
KLWM 200254Z AUTO 20008KT 10SM CLR 17/08 A3000 RMK AO2 SLP158 T01670078 50004   
KLWM 200154Z 20010G17KT 10SM CLR 17/08 A3001 RMK AO2 SLP160 T01720078   
KLWM 200054Z 21010KT 10SM CLR 17/07 A3000 RMK AO2 SLP158 T01720072  
KLWM 192354Z 20007G18KT 10SM CLR 19/07 A2999 RMK AO2 SLP154 T01890067 10244 20189 58002 
KLWM 192254Z 21007KT 10SM CLR 19/07 A3000 RMK AO2 SLP157 T01940072  
KLWM 192154Z 20008KT 10SM CLR 21/06 A2999 RMK AO2 SLP156 T02110061  
KLWM 192054Z 20009KT 10SM CLR 23/07 A3000 RMK AO2 SLP157 T02280067 56030
KLWM 191954Z 21012G22KT 10SM CLR 24/07 A3002 RMK AO2 SLP166 T02390067   
KLWM 191854Z 22012G21KT 10SM CLR 24/08 A3005 RMK AO2 SLP176 T02390078   
KLWM 191754Z 21014KT 10SM CLR 23/08 A3008 RMK AO2 SLP187 T02330083 10233 20100 58034
KLWM 191654Z 22014G19KT 10SM CLR 23/08 A3011 RMK AO2 SLP197 T02280083   
KLWM 191554Z 22015G27KT 10SM CLR 22/09 A3016 RMK AO2 PK WND 22027/1552 SLP211 T02170089